Terminal Aerodrome Forecast
Issued by NWS

Home | Current Version | Previous Version | Text Only | Print | Product List | Glossary On
Versions: 1 2 3 4 5 6 7 8 9 10 11 12 13 14 15 16 17
000
FTUS41 KBTV 281136
TAFMPV
TAF
KMPV 281136Z 2812/2912 VRB03KT P6SM SCT001 OVC012
     FM281400 14006KT P6SM OVC015
     FM281800 15009KT P6SM SCT015 BKN080
     FM290000 15004KT P6SM BKN070
     FM290600 VRB03KT 1/4SM FG VV001=

USA.gov is the U.S. government's official web portal to all federal, state and local government web resources and services.